CDT,Max TemperatureF,Mean TemperatureF,Min TemperatureF,Max Dew PointF,MeanDew PointF,Min DewpointF,Max Humidity, Mean Humidity, Min Humidity, Max Sea Level PressureIn, Mean Sea Level PressureIn, Min Sea Level PressureIn, Max VisibilityMiles, Mean VisibilityMiles, Min VisibilityMiles, Max Wind SpeedMPH, Mean Wind SpeedMPH, Max Gust SpeedMPH,PrecipitationIn, CloudCover, Events, WindDirDegrees
2013-4-1,30,24,17,18,7,3,86,51,32,30.08,30.02,29.91,10,10,2,17,9,28,0.00,4,Snow,299
2013-4-2,33,22,10,10,7,3,79,50,30,30.26,30.17,30.09,10,10,10,15,6,22,0.00,1,,294
2013-4-3,37,20,3,18,8,0,92,54,28,30.40,30.28,30.10,10,10,10,8,2,18,0.00,0,,180
2013-4-4,46,37,28,28,21,18,70,52,32,30.10,29.99,29.93,10,10,10,16,7,23,0.00,3,,269
2013-4-5,37,28,19,28,16,9,93,57,30,30.23,30.14,30.08,10,9,1,9,2,,0.00,3,Rain-Snow,56
2013-4-6,42,36,30,36,30,27,100,85,61,30.07,29.74,29.49,10,7,1,12,5,18,0.33,8,Rain-Snow,133
2013-4-7,44,37,30,32,29,27,100,79,53,29.91,29.81,29.56,10,9,3,14,7,22,0.06,5,Snow,297
2013-4-8,37,34,32,34,33,30,100,94,81,30.00,29.84,29.75,10,5,1,9,2,,0.29,8,Rain,90
2013-4-9,35,34,30,34,30,19,100,84,60,30.13,30.05,29.98,10,7,0,14,4,21,0.00,8,Fog-Rain,27
2013-4-10,41,34,28,23,18,12,80,55,38,30.17,30.07,29.99,10,10,3,17,8,24,0.00,7,Snow,50
2013-4-11,33,30,28,27,22,16,93,71,51,29.98,29.82,29.69,10,7,1,21,13,32,0.12,7,Rain-Snow,72
2013-4-12,32,29,26,28,25,23,93,84,69,29.71,29.65,29.61,10,4,0,9,6,,0.17,8,Rain-Snow,25
2013-4-13,33,28,21,27,21,18,100,75,52,29.94,29.79,29.70,10,8,2,14,7,20,0.00,7,Snow,291
2013-4-14,33,22,10,32,23,9,100,87,56,29.98,29.85,29.66,10,7,0,13,3,21,0.16,6,Rain-Snow,95
2013-4-15,41,36,32,34,29,23,100,81,49,29.87,29.70,29.56,10,7,0,15,5,30,0.18,7,Fog-Rain,206
2013-4-16,42,35,28,28,26,23,87,69,49,30.33,30.10,29.86,10,10,10,12,7,20,0.12,6,,284
2013-4-17,39,34,28,32,26,23,93,73,56,30.35,30.21,29.95,10,10,5,16,5,20,0.03,5,,72
2013-4-18,33,32,32,32,32,32,100,96,93,29.93,29.59,29.22,10,4,1,12,6,16,0.10,8,Rain-Snow,26
2013-4-19,32,26,21,32,23,18,100,83,64,29.85,29.43,29.14,10,5,1,23,10,33,0.07,7,Rain-Snow,313
2013-4-20,35,22,10,18,11,7,93,59,32,30.33,30.15,29.86,10,10,5,13,5,18,0.05,0,Snow,304
2013-4-21,33,28,23,32,25,12,100,78,55,30.40,30.28,30.15,10,8,2,13,4,23,0.03,6,Rain-Snow,148
2013-4-22,39,36,32,37,35,32,100,95,93,30.17,30.11,30.01,10,4,0,12,4,16,0.02,8,Fog-Rain,41
2013-4-23,33,28,23,32,28,21,100,86,69,30.00,29.96,29.87,10,8,2,14,6,22,0.03,6,Rain-Snow,334
2013-4-24,44,30,15,32,21,14,100,66,38,29.98,29.93,29.87,10,9,1,13,3,23,0.03,2,Rain-Snow,255
2013-4-25,44,36,28,32,27,21,100,76,39,30.19,30.07,29.88,10,9,1,10,5,20,0.02,4,Rain-Snow,263
2013-4-26,64,46,28,37,32,25,93,64,32,30.19,30.10,30.04,10,10,7,14,3,18,0.03,3,Rain,197
2013-4-27,69,50,30,45,38,28,100,66,30,30.15,30.07,29.98,10,9,5,8,2,17,0.02,2,,199
2013-4-28,69,52,35,45,40,34,100,61,31,29.98,29.86,29.75,10,10,3,9,2,17,0.02,1,Rain,180
2013-4-29,71,58,46,54,49,45,100,79,41,29.81,29.75,29.69,10,7,0,7,1,,0.01,6,Fog-Rain,140
2013-4-30,78,64,50,54,48,32,94,62,29,29.93,29.67,29.55,10,9,3,16,5,26,0.01,2,Rain,190